createdAt,value
2019-03-04T00:05:54.435Z,72.80
2019-03-04T00:11:25.545Z,72.80
2019-03-04T00:16:50.664Z,72.10
2019-03-04T00:19:38.076Z,71.50
2019-03-04T00:22:26.777Z,71.40
2019-03-04T00:28:13.500Z,72.10
2019-03-04T00:34:10.034Z,71.60
2019-03-04T00:39:48.515Z,71.20
2019-03-04T00:42:32.018Z,68.90
2019-03-04T00:45:12.752Z,68.70
2019-03-04T00:47:54.368Z,68.50
2019-03-04T00:53:26.231Z,67.40
2019-03-04T00:58:50.921Z,67.60
2019-03-04T01:07:08.137Z,67.30
2019-03-04T01:09:50.266Z,67.00
2019-03-04T01:12:31.692Z,66.60
2019-03-04T01:15:13.008Z,66.70
2019-03-04T01:17:54.395Z,67.00
2019-03-04T01:20:35.182Z,66.00
2019-03-04T01:23:16.286Z,65.60
2019-03-04T01:25:57.736Z,65.90
2019-03-04T01:28:39.345Z,64.90
2019-03-04T01:31:20.570Z,64.50
2019-03-04T01:34:02.166Z,64.80
2019-03-04T01:36:43.802Z,64.70
2019-03-04T01:39:25.049Z,64.50
2019-03-04T01:42:08.947Z,64.10
2019-03-04T01:44:50.278Z,64.50
2019-03-04T01:47:31.142Z,64.30
2019-03-04T01:50:12.732Z,64.10
2019-03-04T01:52:53.600Z,64.70
2019-03-04T01:58:13.239Z,65.30
2019-03-04T02:01:02.084Z,65.80
2019-03-04T02:03:50.951Z,65.60
2019-03-04T02:06:39.905Z,65.20
2019-03-04T02:12:24.775Z,66.10
2019-03-04T02:18:21.719Z,66.80
2019-03-04T02:21:10.309Z,66.60
2019-03-04T02:27:28.900Z,66.60
2019-03-04T02:30:36.483Z,67.40
2019-03-04T02:33:25.105Z,67.60
2019-03-04T02:36:13.700Z,68.20
2019-03-04T02:39:02.318Z,68.40
2019-03-04T02:41:43.133Z,68.60
2019-03-04T02:44:23.834Z,68.80
2019-03-04T02:46:53.429Z,68.70
2019-03-04T02:49:42.084Z,69.30
2019-03-04T02:52:30.685Z,69.30
2019-03-04T02:55:19.296Z,69.80
2019-03-04T02:58:07.883Z,70.50
2019-03-04T03:00:56.535Z,70.90
2019-03-04T03:03:45.974Z,71.20
2019-03-04T03:06:34.602Z,71.50
2019-03-04T03:09:23.900Z,71.20
2019-03-04T03:12:12.621Z,71.50
2019-03-04T03:15:01.252Z,71.10
2019-03-04T03:17:49.806Z,71.60
2019-03-04T03:20:38.427Z,71.70
2019-03-04T03:23:27.005Z,71.80
2019-03-04T03:26:15.629Z,72.10
2019-03-04T03:29:04.225Z,72.20
2019-03-04T03:31:54.822Z,71.90
2019-03-04T03:34:43.386Z,72.30
2019-03-04T03:40:10.803Z,72.30
2019-03-04T03:42:40.412Z,72.50
2019-03-04T03:45:10.156Z,72.90
2019-03-04T03:47:39.716Z,73.70
2019-03-04T03:50:10.251Z,73.70
2019-03-04T03:52:39.861Z,73.90
2019-03-04T03:55:10.741Z,74.20
2019-03-04T03:57:40.318Z,74.30
2019-03-04T04:00:13.602Z,74.00
2019-03-04T04:02:43.644Z,73.70
2019-03-04T04:05:13.226Z,74.40
2019-03-04T04:07:42.821Z,74.80
2019-03-04T04:10:12.918Z,74.50
2019-03-04T04:12:42.469Z,74.30
2019-03-04T04:15:12.274Z,74.10
2019-03-04T04:17:41.820Z,73.90
2019-03-04T04:20:12.000Z,73.30
2019-03-04T04:22:41.592Z,73.50
2019-03-04T04:25:11.306Z,73.30
2019-03-04T04:27:40.840Z,73.00
2019-03-04T04:30:11.010Z,73.10
2019-03-04T04:32:40.652Z,73.50
2019-03-04T04:35:10.504Z,73.80
2019-03-04T04:37:40.098Z,73.40
2019-03-04T04:40:09.690Z,73.90
2019-03-04T04:42:39.289Z,73.90
2019-03-04T04:45:08.905Z,74.20
2019-03-04T04:47:38.476Z,74.30
2019-03-04T04:50:09.696Z,74.40
2019-03-04T04:52:39.183Z,74.70
2019-03-04T04:55:08.810Z,74.50
2019-03-04T04:57:38.376Z,74.40
2019-03-04T05:00:10.980Z,74.50
2019-03-04T05:02:40.549Z,74.50
2019-03-04T05:05:10.080Z,74.70
2019-03-04T05:07:39.573Z,74.90
2019-03-04T05:10:12.560Z,74.60
2019-03-04T05:12:42.076Z,74.50
2019-03-04T05:15:12.582Z,74.90
2019-03-04T05:17:42.116Z,74.70
2019-03-04T05:20:17.159Z,74.70
2019-03-04T05:22:46.644Z,74.90
2019-03-04T05:25:16.504Z,75.00
2019-03-04T05:27:46.077Z,74.40
2019-03-04T05:30:17.932Z,74.60
2019-03-04T05:32:47.804Z,74.10
2019-03-04T05:35:17.421Z,74.30
2019-03-04T05:37:46.932Z,74.00
2019-03-04T05:40:17.036Z,73.90
2019-03-04T05:42:46.856Z,74.00
2019-03-04T05:45:16.511Z,73.60
2019-03-04T05:47:46.029Z,73.30
2019-03-04T05:50:17.109Z,73.10
2019-03-04T05:52:46.639Z,73.30
2019-03-04T05:55:16.156Z,72.50
2019-03-04T05:57:45.606Z,72.70
2019-03-04T06:00:17.492Z,73.10
2019-03-04T06:02:47.078Z,73.10
2019-03-04T06:05:16.689Z,72.60
2019-03-04T06:07:58.627Z,73.10
2019-03-04T06:10:28.228Z,73.10
2019-03-04T06:12:58.980Z,73.40
2019-03-04T06:15:28.530Z,73.80
2019-03-04T06:17:58.158Z,73.50
2019-03-04T06:20:27.662Z,73.60
2019-03-04T06:22:57.265Z,74.20
2019-03-04T06:25:46.175Z,75.80
2019-03-04T06:28:16.054Z,75.10
2019-03-04T06:30:46.036Z,75.40
2019-03-04T06:33:15.568Z,76.30
2019-03-04T06:35:45.055Z,75.70
2019-03-04T06:38:14.533Z,75.40
2019-03-04T06:40:44.113Z,76.10
2019-03-04T06:43:13.638Z,76.30
2019-03-04T06:45:43.180Z,76.30
2019-03-04T06:48:12.749Z,76.80
2019-03-04T06:50:53.625Z,76.30
2019-03-04T06:53:33.133Z,76.10
2019-03-04T06:56:24.458Z,75.90
2019-03-04T06:59:01.623Z,74.50
2019-03-04T07:01:38.793Z,74.40
2019-03-04T07:04:31.525Z,74.90
2019-03-04T07:07:01.059Z,74.40
2019-03-04T07:09:30.992Z,73.80
2019-03-04T07:12:00.492Z,73.30
2019-03-04T07:14:30.155Z,73.60
2019-03-04T07:16:59.678Z,72.50
2019-03-04T07:19:34.149Z,72.40
2019-03-04T07:22:03.736Z,71.30
2019-03-04T07:24:33.213Z,71.00
2019-03-04T07:27:02.780Z,70.10
2019-03-04T07:29:32.371Z,70.70
2019-03-04T07:32:01.901Z,69.90
2019-03-04T07:34:33.698Z,69.40
2019-03-04T07:37:02.650Z,69.20
2019-03-04T07:39:32.212Z,68.50
2019-03-04T07:42:01.698Z,67.10
2019-03-04T07:44:31.284Z,66.90
2019-03-04T07:47:00.873Z,67.00
2019-03-04T07:49:30.419Z,66.30
2019-03-04T07:51:59.995Z,65.90
2019-03-04T07:54:29.565Z,64.70
2019-03-04T07:56:59.238Z,65.10
2019-03-04T07:59:29.239Z,63.90
2019-03-04T08:01:58.697Z,63.80
2019-03-04T08:04:28.249Z,62.60
2019-03-04T08:07:35.856Z,62.40
2019-03-04T08:10:42.297Z,62.90
2019-03-04T08:13:16.477Z,60.20
2019-03-04T08:15:48.503Z,60.70
2019-03-04T08:18:18.376Z,59.80
2019-03-04T08:20:48.187Z,59.50
2019-03-04T08:23:17.801Z,59.40
2019-03-04T08:25:47.404Z,59.80
2019-03-04T08:28:17.165Z,58.50
2019-03-04T08:30:47.132Z,58.70
2019-03-04T08:33:16.814Z,58.40
2019-03-04T08:35:46.508Z,59.50
2019-03-04T08:38:16.199Z,63.60
2019-03-04T08:40:45.787Z,66.40
2019-03-04T08:43:15.400Z,65.60
2019-03-04T08:45:45.083Z,65.30
2019-03-04T08:48:14.669Z,66.40
2019-03-04T08:50:44.276Z,66.00
2019-03-04T08:53:13.903Z,67.00
2019-03-04T08:55:45.284Z,67.10
2019-03-04T08:58:15.284Z,67.30
2019-03-04T09:00:45.035Z,65.00
2019-03-04T09:03:14.577Z,66.00
2019-03-04T09:05:44.417Z,65.60
2019-03-04T09:08:14.440Z,62.60
2019-03-04T09:10:44.241Z,62.00
2019-03-04T09:13:13.810Z,61.20
2019-03-04T09:15:43.586Z,60.00
2019-03-04T09:18:13.204Z,58.00
2019-03-04T09:20:42.879Z,56.80
2019-03-04T09:23:12.484Z,55.90
2019-03-04T09:25:56.029Z,54.90
2019-03-04T09:28:25.663Z,54.70
2019-03-04T09:30:55.217Z,54.70
2019-03-04T09:33:24.808Z,53.40
2019-03-04T09:35:54.421Z,54.50
2019-03-04T09:38:42.999Z,54.50
2019-03-04T09:41:45.338Z,54.10
2019-03-04T09:47:10.783Z,54.90
2019-03-04T10:01:12.875Z,51.80
2019-03-04T10:03:54.508Z,52.20
2019-03-04T10:09:25.042Z,52.70
2019-03-04T10:12:05.705Z,52.20
2019-03-04T10:14:47.137Z,52.00
2019-03-04T10:17:57.475Z,51.90
2019-03-04T10:21:05.183Z,52.00
2019-03-04T10:27:05.355Z,50.20
2019-03-04T10:41:57.449Z,51.70
2019-03-04T10:47:28.819Z,52.50
2019-03-04T10:50:10.073Z,54.30
2019-03-04T10:52:40.109Z,56.30
2019-03-04T10:55:29.174Z,56.70
2019-03-04T10:58:17.800Z,59.20
2019-03-04T11:01:06.362Z,61.30
2019-03-04T11:03:36.041Z,62.40
2019-03-04T11:06:05.703Z,65.30
2019-03-04T11:12:01.602Z,63.80
2019-03-04T11:14:31.374Z,62.90
2019-03-04T11:23:20.067Z,62.50
2019-03-04T11:28:55.401Z,59.10
2019-03-04T11:34:39.769Z,59.60
2019-03-04T11:37:28.521Z,60.00
2019-03-04T11:40:17.006Z,56.50
2019-03-04T11:48:56.812Z,54.40
2019-03-04T11:51:45.729Z,53.10
2019-03-04T11:57:44.743Z,53.50
2019-03-04T12:03:31.326Z,52.00
2019-03-04T12:09:36.079Z,51.80
2019-03-04T12:12:06.294Z,50.70
2019-03-04T12:17:53.609Z,50.80
2019-03-04T12:20:42.310Z,51.00
2019-03-04T12:26:20.236Z,51.40
2019-03-04T12:29:09.283Z,52.50
2019-03-04T12:40:48.682Z,54.20
2019-03-04T12:43:37.211Z,54.80
2019-03-04T12:46:07.124Z,55.20
2019-03-04T12:48:55.894Z,55.40
2019-03-04T12:51:44.494Z,56.20
2019-03-04T12:54:33.101Z,56.40
2019-03-04T12:57:21.973Z,56.40
2019-03-04T13:00:10.279Z,58.80
2019-03-04T13:02:59.048Z,59.60
2019-03-04T13:05:47.744Z,59.00
2019-03-04T13:08:17.222Z,59.20
2019-03-04T13:11:05.840Z,61.30
2019-03-04T13:13:54.420Z,65.00
2019-03-04T13:16:43.433Z,64.40
2019-03-04T13:19:31.955Z,67.10
2019-03-04T13:22:20.679Z,69.30
2019-03-04T13:25:09.354Z,69.60
2019-03-04T13:28:07.517Z,71.50
2019-03-04T13:36:45.354Z,72.10
2019-03-04T13:45:18.654Z,71.50
2019-03-04T13:53:36.148Z,76.00
2019-03-04T13:59:03.526Z,77.70
2019-03-04T14:04:32.967Z,76.00
2019-03-04T14:09:56.478Z,75.30
2019-03-04T14:23:42.043Z,75.20
2019-03-04T14:34:52.763Z,76.60
2019-03-04T14:40:19.097Z,75.80
2019-03-04T14:45:45.949Z,76.40
2019-03-04T14:48:15.554Z,76.90
2019-03-04T14:54:00.076Z,76.00
2019-03-04T14:59:41.547Z,72.90
2019-03-04T15:02:30.237Z,72.80
2019-03-04T15:05:18.806Z,72.60
2019-03-04T15:08:07.421Z,75.30
2019-03-04T15:10:56.527Z,74.20
2019-03-04T15:13:46.834Z,74.30
2019-03-04T15:22:34.794Z,73.60
2019-03-04T15:25:22.884Z,74.40
2019-03-04T15:28:15.302Z,74.30
2019-03-04T15:30:46.658Z,73.60
2019-03-04T15:42:02.627Z,70.90
2019-03-04T15:44:32.191Z,71.70
2019-03-04T15:47:01.769Z,73.00
2019-03-04T15:49:31.216Z,72.80
2019-03-04T15:52:00.708Z,73.80
2019-03-04T15:54:30.204Z,75.50
2019-03-04T15:57:03.513Z,74.50
2019-03-04T15:59:33.079Z,73.70
2019-03-04T16:02:11.442Z,72.10
2019-03-04T16:04:41.003Z,71.80
2019-03-04T16:07:11.984Z,71.90
2019-03-04T16:09:41.582Z,73.20
2019-03-04T16:12:12.747Z,70.90
2019-03-04T16:14:42.636Z,71.80
2019-03-04T16:17:12.319Z,70.90
2019-03-04T16:19:41.909Z,70.70
2019-03-04T16:22:11.462Z,70.50
2019-03-04T16:24:40.968Z,70.70
2019-03-04T16:27:12.713Z,70.60
2019-03-04T16:29:42.343Z,69.20
2019-03-04T16:32:11.929Z,69.30
2019-03-04T16:34:41.473Z,68.90
2019-03-04T16:37:11.034Z,69.10
2019-03-04T16:39:40.581Z,68.60
2019-03-04T16:42:10.164Z,69.50
2019-03-04T16:44:40.190Z,69.10
2019-03-04T16:47:09.905Z,68.60
2019-03-04T16:49:39.509Z,69.30
2019-03-04T16:52:10.011Z,68.10
2019-03-04T16:54:39.608Z,67.80
2019-03-04T16:57:13.161Z,67.90
2019-03-04T16:59:42.722Z,68.70
2019-03-04T17:02:12.271Z,68.80
2019-03-04T17:04:41.845Z,69.20
2019-03-04T17:07:11.376Z,68.90
2019-03-04T17:09:41.000Z,68.80
2019-03-04T17:12:10.952Z,69.40
2019-03-04T17:14:40.794Z,69.90
2019-03-04T17:17:14.079Z,70.10
2019-03-04T17:19:44.005Z,70.30
2019-03-04T17:22:13.526Z,70.30
2019-03-04T17:24:43.062Z,70.30
2019-03-04T17:27:13.026Z,70.90
2019-03-04T17:29:42.691Z,69.80
2019-03-04T17:32:12.260Z,70.70
2019-03-04T17:34:41.827Z,70.60
2019-03-04T17:37:11.411Z,70.10
2019-03-04T17:39:40.993Z,70.40
2019-03-04T17:42:11.297Z,69.90
2019-03-04T17:44:40.906Z,69.60
2019-03-04T17:47:10.563Z,70.10
2019-03-04T17:49:40.504Z,70.90
2019-03-04T17:52:10.701Z,71.30
2019-03-04T17:54:40.712Z,70.80
2019-03-04T17:57:10.588Z,70.40
2019-03-04T17:59:40.127Z,70.60
2019-03-04T18:02:10.262Z,70.50
2019-03-04T18:04:39.836Z,70.60
2019-03-04T18:07:09.355Z,70.10
2019-03-04T18:09:38.937Z,71.10
2019-03-04T18:12:08.512Z,71.00
2019-03-04T18:14:38.399Z,71.00
2019-03-04T18:17:09.718Z,71.00
2019-03-04T18:19:41.461Z,69.90
2019-03-04T18:22:11.601Z,70.50
2019-03-04T18:24:41.293Z,70.50
2019-03-04T18:27:21.331Z,70.20
2019-03-04T18:30:16.220Z,69.90
2019-03-04T18:33:28.928Z,71.00
2019-03-04T18:36:42.116Z,70.10
2019-03-04T18:39:53.375Z,70.10
2019-03-04T18:42:50.964Z,70.20
2019-03-04T18:46:06.241Z,70.70
2019-03-04T18:48:58.007Z,70.30
2019-03-04T18:51:29.056Z,70.70
2019-03-04T18:54:04.156Z,71.30
2019-03-04T18:56:33.656Z,69.60
2019-03-04T18:59:03.752Z,70.40
2019-03-04T19:01:33.643Z,71.30
2019-03-04T19:04:03.906Z,69.70
2019-03-04T19:06:33.497Z,69.70
2019-03-04T19:09:04.657Z,69.70
2019-03-04T19:11:34.260Z,70.20
2019-03-04T19:14:03.979Z,70.00
2019-03-04T19:19:24.375Z,69.20
2019-03-04T19:21:53.928Z,70.10
2019-03-04T19:24:23.560Z,69.30
2019-03-04T19:26:53.602Z,69.40
2019-03-04T19:29:23.870Z,69.40
2019-03-04T19:31:53.572Z,69.60
2019-03-04T19:34:23.171Z,69.40
2019-03-04T19:36:52.882Z,69.40
2019-03-04T19:39:22.466Z,69.40
2019-03-04T19:41:52.059Z,70.00
2019-03-04T19:44:21.674Z,70.00
2019-03-04T19:46:51.333Z,69.80
2019-03-04T19:49:22.266Z,69.90
2019-03-04T19:51:51.845Z,70.10
2019-03-04T19:54:22.548Z,70.30
2019-03-04T19:56:52.051Z,70.30
2019-03-04T19:59:21.627Z,71.10
2019-03-04T20:01:51.260Z,71.30
2019-03-04T20:04:20.781Z,71.10
2019-03-04T20:06:50.596Z,71.80
2019-03-04T20:09:20.079Z,71.90
2019-03-04T20:11:51.482Z,71.80
2019-03-04T20:14:21.053Z,71.80
2019-03-04T20:16:50.688Z,72.00
2019-03-04T20:19:20.373Z,72.10
2019-03-04T20:21:50.050Z,72.50
2019-03-04T20:24:19.749Z,72.60
2019-03-04T20:26:49.404Z,72.30
2019-03-04T20:29:19.196Z,72.80
2019-03-04T20:31:51.004Z,73.30
2019-03-04T20:34:20.476Z,73.50
2019-03-04T20:36:50.661Z,73.50
2019-03-04T20:39:20.753Z,73.60
2019-03-04T20:41:50.287Z,73.50
2019-03-04T20:44:19.785Z,73.30
2019-03-04T20:46:49.384Z,73.50
2019-03-04T20:49:18.941Z,73.20
2019-03-04T20:51:48.534Z,73.30
2019-03-04T20:54:18.161Z,73.40
2019-03-04T20:56:48.099Z,74.30
2019-03-04T20:59:17.667Z,73.40
2019-03-04T21:01:47.246Z,73.40
2019-03-04T21:04:16.973Z,73.30
2019-03-04T21:06:46.509Z,74.00
2019-03-04T21:09:16.288Z,74.20
2019-03-04T21:11:45.855Z,74.00
2019-03-04T21:14:15.800Z,73.60
2019-03-04T21:16:45.938Z,74.10
2019-03-04T21:19:15.873Z,73.60
2019-03-04T21:21:45.461Z,74.70
2019-03-04T21:24:15.132Z,73.80
2019-03-04T21:26:47.388Z,74.60
2019-03-04T21:29:34.762Z,74.20
2019-03-04T21:32:21.945Z,74.10
2019-03-04T21:35:36.357Z,74.50
2019-03-04T21:38:06.406Z,74.70
2019-03-04T21:41:00.649Z,76.00
2019-03-04T21:43:52.130Z,75.60
2019-03-04T21:46:59.657Z,75.80
2019-03-04T21:49:49.916Z,76.50
2019-03-04T21:52:46.961Z,77.40
2019-03-04T21:55:39.025Z,78.40
2019-03-04T21:58:27.671Z,78.60
2019-03-04T22:01:01.692Z,79.00
2019-03-04T22:03:37.658Z,79.40
2019-03-04T22:06:10.160Z,79.60
2019-03-04T22:08:39.898Z,80.00
2019-03-04T22:11:09.806Z,80.50
2019-03-04T22:13:40.420Z,80.10
2019-03-04T22:16:12.834Z,80.60
2019-03-04T22:18:42.541Z,80.60
2019-03-04T22:21:16.784Z,80.80
2019-03-04T22:23:43.219Z,80.60
2019-03-04T22:26:13.843Z,81.00
2019-03-04T22:28:43.577Z,80.90
2019-03-04T22:31:32.123Z,80.70
2019-03-04T22:34:20.780Z,80.80
2019-03-04T22:37:09.330Z,80.80
2019-03-04T22:39:57.921Z,80.80
2019-03-04T22:42:46.500Z,81.10
2019-03-04T22:51:41.204Z,79.80
2019-03-04T22:57:20.619Z,79.40
2019-03-04T22:59:50.612Z,80.20
2019-03-04T23:05:40.048Z,78.30
2019-03-04T23:08:28.582Z,77.00
2019-03-04T23:11:17.295Z,77.00
2019-03-04T23:16:55.034Z,75.80
2019-03-04T23:19:25.076Z,76.10
2019-03-04T23:21:54.909Z,76.60
2019-03-04T23:24:24.736Z,76.90
2019-03-04T23:27:13.283Z,77.50
2019-03-04T23:30:01.856Z,77.50
2019-03-04T23:32:50.425Z,79.00
2019-03-04T23:35:19.942Z,79.10
2019-03-04T23:37:49.635Z,78.30
2019-03-04T23:46:41.928Z,78.30
2019-03-04T23:49:11.492Z,78.50
2019-03-04T23:52:00.031Z,77.80
2019-03-04T23:54:48.625Z,78.20
2019-03-04T23:57:37.153Z,76.80
